createdAt,value
2023-01-26T00:05:08.870Z,29.6
2023-01-26T00:10:20.812Z,20.6
2023-01-26T00:15:35.687Z,28.2
2023-01-26T00:20:41.956Z,20.5
2023-01-26T00:25:53.961Z,19.1
2023-01-26T00:31:02.790Z,28
2023-01-26T00:36:15.242Z,20.3
2023-01-26T00:41:25.891Z,19.5
2023-01-26T00:46:36.866Z,20.9
2023-01-26T00:51:48.365Z,21.3
2023-01-26T00:56:59.889Z,21.4
2023-01-26T01:02:13.234Z,23.5
2023-01-26T01:12:44.178Z,23.6
2023-01-26T01:17:53.617Z,32.7
2023-01-26T01:23:05.949Z,23.3
2023-01-26T01:33:38.942Z,23.7
2023-01-26T01:38:47.907Z,32.6
2023-01-26T01:44:03.486Z,23.1
2023-01-26T01:49:15.653Z,24
2023-01-26T01:54:25.929Z,24.2
2023-01-26T01:59:36.854Z,25.1
2023-01-26T02:04:48.494Z,24.9
2023-01-26T02:09:59.709Z,24.8
2023-01-26T02:20:43.734Z,25.6
2023-01-26T02:25:54.896Z,31.7
2023-01-26T02:31:09.469Z,22.3
2023-01-26T02:36:20.464Z,20.2
2023-01-26T02:41:31.695Z,19.5
2023-01-26T02:46:46.749Z,17.9
2023-01-26T02:51:58.358Z,25.3
2023-01-26T02:57:04.843Z,15.1
2023-01-26T03:02:16.685Z,15.3
2023-01-26T03:07:28.952Z,16.7
2023-01-26T03:12:40.032Z,16.5
2023-01-26T03:17:52.072Z,14
2023-01-26T03:23:03.603Z,14.3
2023-01-26T03:28:15.391Z,18.5
2023-01-26T03:33:27.258Z,18
2023-01-26T03:43:58.907Z,20.1
2023-01-26T03:49:11.405Z,19.1
2023-01-26T03:54:22.232Z,17.5
2023-01-26T03:59:32.505Z,20.6
2023-01-26T04:04:43.283Z,21.6
2023-01-26T04:09:54.520Z,20.2
2023-01-26T04:15:05.958Z,20.5
2023-01-26T04:20:22.159Z,16.5
2023-01-26T04:25:34.082Z,16.4
2023-01-26T04:41:26.873Z,16.2
2023-01-26T04:46:38.539Z,16.2
2023-01-26T04:51:50.892Z,18.6
2023-01-26T04:57:06.279Z,17.3
2023-01-26T05:02:18.634Z,17
2023-01-26T05:07:34.847Z,17
2023-01-26T05:12:45.096Z,17.3
2023-01-26T05:17:57.033Z,18.2
2023-01-26T05:23:09.092Z,16.8
2023-01-26T05:28:20.815Z,17.4
2023-01-26T05:33:32.835Z,17.8
2023-01-26T05:38:42.610Z,16.4
2023-01-26T05:49:15.131Z,18
2023-01-26T06:10:43.662Z,16.4
2023-01-26T06:26:53.534Z,17.4
2023-01-26T06:32:05.247Z,24.8
2023-01-26T06:37:21.337Z,16.9
2023-01-26T06:42:37.392Z,15.5
2023-01-26T06:47:52.406Z,17
2023-01-26T06:53:01.190Z,17
2023-01-26T07:09:11.757Z,16.1
2023-01-26T07:19:41.122Z,15.8
2023-01-26T07:30:26.519Z,15.7
2023-01-26T07:35:43.666Z,23.8
2023-01-26T07:40:50.247Z,15
2023-01-26T07:46:05.468Z,16.4
2023-01-26T07:51:16.872Z,17.3
2023-01-26T08:23:15.946Z,15.7
2023-01-26T08:28:28.367Z,16.2
2023-01-26T08:33:43.254Z,15.9
2023-01-26T08:38:55.103Z,15.8
2023-01-26T08:49:40.356Z,12.8
2023-01-26T08:54:50.857Z,14.1
2023-01-26T09:00:04.395Z,12.5
2023-01-26T09:05:12.432Z,12.6
2023-01-26T09:31:56.168Z,12.3
2023-01-26T09:48:10.997Z,17.8
2023-01-26T09:53:20.917Z,13.8
2023-01-26T09:58:34.509Z,13.3
2023-01-26T10:03:45.699Z,11.7
2023-01-26T10:09:03.667Z,16.9
2023-01-26T10:14:20.527Z,11.7
2023-01-26T10:19:34.550Z,10.9
2023-01-26T10:24:50.925Z,12.1
2023-01-26T10:30:08.577Z,11.9
2023-01-26T10:40:51.364Z,10.8
2023-01-26T10:46:04.280Z,12.2
2023-01-26T10:51:18.950Z,10.9
2023-01-26T10:56:37.915Z,16.4
2023-01-26T11:01:47.882Z,11.7
2023-01-26T11:06:59.847Z,11.9
2023-01-26T11:12:15.406Z,9.7
2023-01-26T11:17:32.025Z,8.7
2023-01-26T11:22:42.120Z,12.2
2023-01-26T11:38:34.199Z,10.7
2023-01-26T11:43:53.361Z,9.6
2023-01-26T11:49:07.436Z,13
2023-01-26T11:59:43.847Z,10.8
2023-01-26T12:04:59.142Z,11.4
2023-01-26T12:10:13.053Z,14.9
2023-01-26T12:15:29.709Z,9.6
2023-01-26T12:20:42.416Z,8.7
2023-01-26T12:31:23.696Z,9.6
2023-01-26T12:52:47.645Z,8.8
2023-01-26T12:58:00.015Z,9.5
2023-01-26T13:08:32.141Z,9.6
2023-01-26T13:13:44.220Z,9.2
2023-01-26T13:24:16.423Z,9.1
2023-01-26T13:40:26.355Z,9
2023-01-26T13:45:38.446Z,8.6
2023-01-26T13:50:53.851Z,8.7
2023-01-26T14:01:27.157Z,8.6
2023-01-26T14:22:46.588Z,13.3
2023-01-26T14:27:58.359Z,8.6
2023-01-26T14:33:11.008Z,8.2
2023-01-26T14:38:24.898Z,12.1
2023-01-26T14:54:16.213Z,11.8
2023-01-26T15:05:01.577Z,17.5
2023-01-26T15:10:14.892Z,16
2023-01-26T15:15:25.884Z,9.8
2023-01-26T15:26:06.855Z,11.7
2023-01-26T15:31:16.160Z,15.7
2023-01-26T15:36:31.937Z,11.9
2023-01-26T15:41:48.441Z,10.2
2023-01-26T15:47:00.728Z,11.4
2023-01-26T15:52:19.662Z,8.7
2023-01-26T15:57:35.167Z,11.1
2023-01-26T16:02:52.404Z,8.9
2023-01-26T16:08:05.887Z,11.5
2023-01-26T16:13:21.930Z,10
2023-01-26T16:18:33.567Z,10.5
2023-01-26T16:45:13.512Z,11.5
2023-01-26T16:50:24.335Z,8.1
2023-01-26T17:01:08.322Z,12.5
2023-01-26T17:06:21.199Z,13.5
2023-01-26T17:17:07.490Z,8.9
2023-01-26T17:22:16.050Z,8.1
2023-01-26T17:38:21.707Z,7.3
2023-01-26T17:43:32.058Z,7.4
2023-01-26T17:59:29.729Z,12.6
2023-01-26T18:04:42.370Z,7
2023-01-26T18:26:22.212Z,7.3
2023-01-26T18:47:49.925Z,7.7
2023-01-26T19:03:54.359Z,9.2
2023-01-26T19:09:01.518Z,12.4
2023-01-26T19:24:59.322Z,13.9
2023-01-26T19:30:09.363Z,9.5
2023-01-26T19:51:39.392Z,8.1
2023-01-26T19:56:52.138Z,6.6
2023-01-26T20:07:37.339Z,9.4
2023-01-26T20:12:46.083Z,6
2023-01-26T20:29:00.188Z,7.4
2023-01-26T20:34:08.608Z,9.1
2023-01-26T20:44:45.267Z,5.4
2023-01-26T20:49:58.958Z,9.4
2023-01-26T20:55:38.163Z,9.2
2023-01-26T21:00:52.524Z,8.1
2023-01-26T21:11:34.412Z,6.1
2023-01-26T21:22:17.486Z,7.4
2023-01-26T21:27:33.950Z,10.7
2023-01-26T21:32:45.389Z,11.6
2023-01-26T21:44:39.502Z,10.6
2023-01-26T21:55:16.061Z,8
2023-01-26T22:00:26.739Z,8.7
2023-01-26T22:05:40.263Z,11.8
2023-01-26T22:10:54.153Z,8.4
2023-01-26T22:21:43.838Z,8.3
2023-01-26T22:26:58.550Z,9.1
2023-01-26T22:32:09.952Z,9.4
2023-01-26T22:42:53.512Z,10.4
2023-01-26T22:48:11.294Z,14.3
2023-01-26T22:53:22.026Z,10.4
2023-01-26T22:58:59.806Z,11.6
2023-01-26T23:03:59.998Z,13.2
2023-01-26T23:09:20.676Z,13.2
2023-01-26T23:14:44.603Z,14.1
2023-01-26T23:20:12.637Z,16.6
2023-01-26T23:25:27.328Z,17.1
2023-01-26T23:46:43.336Z,14.1
2023-01-26T23:51:57.274Z,16.3
2023-01-26T23:57:09.425Z,15.4
